Time;durP1;ratioP1;P1;durP2;ratioP2;P2;SDS_P1;SDS_P2;PMS_P1;PMS_P2;Temp;Humidity;BMP_temperature;BMP_pressure;BME280_temperature;BME280_humidity;BME280_pressure;Samples;Min_cycle;Max_cycle;Signal;HPM_P1;HPM_P2
2023/11/15 00:01:56;;;;;;;16.57;3.97;;;11.90;99.90;;;;;;4963647;29;20210;-91
2023/11/15 00:04:28;;;;;;;13.37;3.40;;;11.80;99.90;;;;;;4971937;29;20185;-91
2023/11/15 00:06:55;;;;;;;15.43;3.97;;;11.90;99.90;;;;;;4941319;29;20579;-91
2023/11/15 00:09:20;;;;;;;15.27;3.27;;;11.90;99.90;;;;;;4940754;29;20337;-93
2023/11/15 00:11:46;;;;;;;14.80;3.40;;;11.80;99.90;;;;;;4940930;29;20332;-92
2023/11/15 00:14:12;;;;;;;12.10;3.77;;;11.80;99.90;;;;;;4941067;29;20228;-92
2023/11/15 00:16:38;;;;;;;10.27;3.73;;;11.80;99.90;;;;;;4944605;28;20184;-92
2023/11/15 00:19:07;;;;;;;11.93;3.40;;;11.80;99.90;;;;;;4962528;28;20192;-91
2023/11/15 00:21:34;;;;;;;12.67;3.17;;;11.80;99.90;;;;;;4959795;28;20190;-90
2023/11/15 00:24:00;;;;;;;12.40;3.30;;;11.70;99.90;;;;;;4960851;28;20682;-93
2023/11/15 00:26:26;;;;;;;16.83;3.40;;;11.70;99.90;;;;;;4961767;28;20221;-89
2023/11/15 00:28:52;;;;;;;14.70;3.60;;;11.70;99.90;;;;;;4960772;28;20269;-91
2023/11/15 00:31:19;;;;;;;12.13;2.97;;;11.70;99.90;;;;;;4976672;28;20174;-91
2023/11/15 00:33:45;;;;;;;16.03;3.47;;;11.70;99.90;;;;;;4968032;28;20590;-91
2023/11/15 00:36:19;;;;;;;16.17;3.87;;;11.70;99.90;;;;;;4969749;28;20182;-92
2023/11/15 00:38:46;;;;;;;11.67;3.60;;;11.60;99.90;;;;;;4970074;28;20181;-92
2023/11/15 00:41:13;;;;;;;17.63;3.20;;;11.60;99.90;;;;;;4970034;28;20208;-91
2023/11/15 00:43:39;;;;;;;12.40;3.50;;;11.60;99.90;;;;;;4971892;28;20198;-91
2023/11/15 00:46:05;;;;;;;12.50;2.97;;;11.60;99.90;;;;;;4981490;28;20187;-91
2023/11/15 00:48:30;;;;;;;18.57;3.50;;;11.50;99.90;;;;;;4981382;28;20229;-91
2023/11/15 00:50:56;;;;;;;16.97;3.37;;;11.50;99.90;;;;;;4997605;28;20188;-93
2023/11/15 00:53:22;;;;;;;12.60;3.70;;;11.50;99.90;;;;;;4972444;28;20215;-92
2023/11/15 00:55:49;;;;;;;17.17;4.00;;;11.50;99.90;;;;;;4966430;28;20189;-93
2023/11/15 00:58:16;;;;;;;14.53;3.60;;;11.50;99.90;;;;;;4967759;28;20186;-91
2023/11/15 01:00:47;;;;;;;12.67;3.50;;;11.50;99.90;;;;;;4980697;28;20244;-92
2023/11/15 01:03:25;;;;;;;7.57;2.93;;;11.50;99.90;;;;;;4978999;28;20188;-91
2023/11/15 01:05:55;;;;;;;17.03;3.63;;;11.40;99.90;;;;;;4981933;28;20256;-91
2023/11/15 01:08:23;;;;;;;10.87;3.47;;;11.40;99.90;;;;;;4981642;28;20205;-91
2023/11/15 01:10:52;;;;;;;18.57;4.33;;;11.50;99.90;;;;;;4971051;28;20260;-92
2023/11/15 01:13:19;;;;;;;19.60;4.20;;;11.40;99.90;;;;;;4961946;28;20215;-92
2023/11/15 01:15:45;;;;;;;13.93;3.57;;;11.40;99.90;;;;;;4960912;28;20188;-92
2023/11/15 01:18:11;;;;;;;19.43;3.73;;;11.40;99.90;;;;;;4961553;28;20191;-93
2023/11/15 01:20:38;;;;;;;14.50;3.30;;;11.40;99.90;;;;;;4960948;28;20636;-94
2023/11/15 01:23:06;;;;;;;11.23;3.70;;;11.50;99.90;;;;;;4959252;28;20245;-93
2023/11/15 01:25:35;;;;;;;15.53;3.53;;;11.50;99.90;;;;;;4979648;28;20188;-92
2023/11/15 01:28:00;;;;;;;15.07;3.60;;;11.70;99.90;;;;;;4978140;28;20181;-91
2023/11/15 01:30:29;;;;;;;11.07;4.20;;;11.50;99.90;;;;;;4982336;28;20219;-90
2023/11/15 01:32:58;;;;;;;19.73;4.07;;;11.50;99.90;;;;;;4974765;28;20661;-92
2023/11/15 01:35:25;;;;;;;11.63;3.67;;;11.50;99.90;;;;;;4980000;28;20180;-90
2023/11/15 01:38:05;;;;;;;15.87;3.83;;;11.60;99.90;;;;;;4961099;28;20338;-90
2023/11/15 01:40:34;;;;;;;15.67;3.97;;;11.80;99.90;;;;;;4960765;28;20194;-91
2023/11/15 01:43:00;;;;;;;18.73;3.77;;;11.80;99.90;;;;;;4963800;28;20516;-90
2023/11/15 01:45:27;;;;;;;16.27;3.27;;;11.70;99.90;;;;;;4964908;28;20185;-91
2023/11/15 01:47:54;;;;;;;17.67;4.23;;;11.70;99.90;;;;;;4981096;28;20199;-89
2023/11/15 01:50:21;;;;;;;16.23;3.70;;;11.70;99.90;;;;;;4977004;28;20202;-91
2023/11/15 01:52:49;;;;;;;14.97;3.60;;;11.80;99.90;;;;;;4965961;28;20239;-91
2023/11/15 01:55:19;;;;;;;14.67;3.97;;;11.60;99.90;;;;;;4958923;28;20210;-91
2023/11/15 01:57:46;;;;;;;12.07;3.40;;;11.70;99.90;;;;;;4960250;28;20189;-91
2023/11/15 02:00:14;;;;;;;17.63;4.53;;;11.60;99.90;;;;;;4962335;28;20187;-90
2023/11/15 02:02:41;;;;;;;15.77;4.10;;;11.50;99.90;;;;;;4964062;28;20645;-90
2023/11/15 02:05:09;;;;;;;20.27;4.30;;;11.60;99.90;;;;;;4964262;28;20187;-90
2023/11/15 02:07:39;;;;;;;17.40;4.70;;;11.60;99.90;;;;;;4971126;28;20183;-90
2023/11/15 02:10:07;;;;;;;18.60;4.17;;;11.70;99.90;;;;;;4972308;28;20200;-90
2023/11/15 02:12:33;;;;;;;19.43;4.53;;;11.60;99.90;;;;;;4974244;28;20181;-90
2023/11/15 02:14:59;;;;;;;17.47;4.50;;;11.60;99.90;;;;;;4972594;28;20283;-91
2023/11/15 02:17:26;;;;;;;16.27;3.57;;;11.60;99.90;;;;;;4967704;28;20192;-90
2023/11/15 02:19:51;;;;;;;11.67;4.20;;;11.50;99.90;;;;;;4971508;28;20263;-89
2023/11/15 02:22:20;;;;;;;18.07;4.17;;;11.60;99.90;;;;;;4972116;28;20187;-91
2023/11/15 02:24:46;;;;;;;14.57;3.90;;;11.70;99.90;;;;;;4962767;29;20261;-89
2023/11/15 02:27:12;;;;;;;16.93;3.90;;;11.50;99.90;;;;;;4952337;29;20272;-89
2023/11/15 02:29:39;;;;;;;16.97;4.37;;;11.50;99.90;;;;;;4951446;29;20180;-91
2023/11/15 02:32:06;;;;;;;15.33;4.83;;;11.50;99.90;;;;;;4944545;29;20180;-90
2023/11/15 02:34:32;;;;;;;18.63;4.27;;;11.40;99.90;;;;;;4941560;29;20253;-90
2023/11/15 02:36:58;;;;;;;18.20;4.63;;;11.40;99.90;;;;;;4959125;29;20185;-90
2023/11/15 02:39:24;;;;;;;19.43;4.07;;;11.40;99.90;;;;;;4942289;29;20195;-90
2023/11/15 02:41:50;;;;;;;14.63;3.90;;;11.30;99.90;;;;;;4941997;29;20185;-91
2023/11/15 02:44:16;;;;;;;20.13;4.07;;;11.40;99.90;;;;;;4940878;29;20189;-92
2023/11/15 02:46:42;;;;;;;19.73;4.40;;;11.60;99.90;;;;;;4942111;29;20723;-91
2023/11/15 02:49:08;;;;;;;17.83;3.50;;;11.30;99.90;;;;;;4952803;29;20200;-88
2023/11/15 02:51:33;;;;;;;18.33;4.13;;;11.30;99.90;;;;;;4951196;28;20191;-90
2023/11/15 02:53:59;;;;;;;21.07;4.50;;;11.30;99.90;;;;;;4956333;29;20243;-91
2023/11/15 02:56:26;;;;;;;13.50;3.70;;;11.30;99.90;;;;;;4944053;29;20189;-91
2023/11/15 02:58:52;;;;;;;16.67;4.00;;;11.30;99.90;;;;;;4944133;29;20284;-90
2023/11/15 03:01:19;;;;;;;17.63;3.83;;;11.40;99.90;;;;;;4949690;29;20589;-89
2023/11/15 03:03:44;;;;;;;15.40;3.57;;;11.40;99.90;;;;;;4954524;29;20197;-89
2023/11/15 03:06:10;;;;;;;15.93;4.17;;;11.30;99.90;;;;;;4952152;29;20528;-89
2023/11/15 03:08:36;;;;;;;18.67;4.17;;;11.30;99.90;;;;;;4950663;29;20200;-88
2023/11/15 03:11:02;;;;;;;19.47;4.40;;;11.40;99.90;;;;;;4955218;29;20189;-88
2023/11/15 03:13:28;;;;;;;18.60;5.10;;;11.30;99.90;;;;;;4956499;29;20228;-90
2023/11/15 03:15:55;;;;;;;13.67;3.30;;;11.30;99.90;;;;;;4956098;29;20188;-89
2023/11/15 03:18:21;;;;;;;15.07;4.00;;;11.30;99.90;;;;;;4943317;29;20295;-90
2023/11/15 03:20:48;;;;;;;20.23;5.07;;;11.30;99.90;;;;;;4942757;29;20279;-89
2023/11/15 03:23:14;;;;;;;15.33;4.20;;;11.30;99.90;;;;;;4945648;29;20204;-88
2023/11/15 03:25:41;;;;;;;15.57;3.87;;;11.40;99.90;;;;;;4947469;29;20203;-90
2023/11/15 03:28:08;;;;;;;17.20;3.87;;;11.40;99.90;;;;;;4965668;29;20177;-87
2023/11/15 03:30:36;;;;;;;16.03;4.03;;;11.40;99.90;;;;;;4955628;29;20190;-89
2023/11/15 03:33:05;;;;;;;17.50;3.87;;;11.50;99.90;;;;;;4968344;29;20206;-89
2023/11/15 03:35:30;;;;;;;16.33;3.83;;;11.40;99.90;;;;;;4943962;29;20200;-90
2023/11/15 03:37:56;;;;;;;16.30;4.00;;;11.40;99.90;;;;;;4942230;29;20195;-92
2023/11/15 03:40:22;;;;;;;20.87;4.60;;;11.40;99.90;;;;;;4944714;29;20192;-91
2023/11/15 03:42:50;;;;;;;17.33;4.30;;;11.40;99.90;;;;;;4946193;29;20181;-90
2023/11/15 03:45:16;;;;;;;17.53;4.83;;;11.50;99.90;;;;;;4951755;29;20181;-88
2023/11/15 03:47:42;;;;;;;16.87;4.30;;;11.70;99.90;;;;;;4950581;29;20189;-88
2023/11/15 03:50:09;;;;;;;23.57;4.43;;;11.50;99.90;;;;;;4944643;29;20525;-88
2023/11/15 03:52:35;;;;;;;13.70;3.47;;;11.40;99.90;;;;;;4943004;29;20192;-90
2023/11/15 03:55:20;;;;;;;19.60;3.70;;;11.50;99.90;;;;;;4942989;29;20191;-88
2023/11/15 03:57:46;;;;;;;14.87;3.97;;;11.50;99.90;;;;;;4944474;29;20180;-89
2023/11/15 04:00:14;;;;;;;14.43;4.20;;;11.50;99.90;;;;;;4942980;29;20237;-88
2023/11/15 04:02:40;;;;;;;16.30;4.83;;;11.40;99.90;;;;;;4939866;29;20222;-89
2023/11/15 04:05:09;;;;;;;16.47;3.83;;;11.50;99.90;;;;;;4942036;29;20180;-90
2023/11/15 04:07:36;;;;;;;15.43;4.10;;;11.40;99.90;;;;;;4940063;29;20256;-89
2023/11/15 04:10:02;;;;;;;15.40;3.80;;;11.60;99.90;;;;;;4939101;29;20267;-92
2023/11/15 04:12:28;;;;;;;18.23;3.80;;;11.40;99.90;;;;;;4939479;29;20208;-90
2023/11/15 04:14:53;;;;;;;16.53;3.80;;;11.40;99.90;;;;;;4941794;29;20201;-89
2023/11/15 04:17:20;;;;;;;16.43;4.20;;;11.40;99.90;;;;;;4961461;29;20181;-88
2023/11/15 04:19:49;;;;;;;16.07;3.47;;;11.30;99.90;;;;;;4950278;29;20220;-89
2023/11/15 04:22:14;;;;;;;17.47;4.03;;;11.30;99.90;;;;;;4941707;29;20283;-89
2023/11/15 04:24:40;;;;;;;15.83;4.00;;;11.30;99.90;;;;;;4968112;29;20213;-89
2023/11/15 04:27:07;;;;;;;17.23;4.03;;;11.30;99.90;;;;;;4954157;29;20636;-90
2023/11/15 04:29:32;;;;;;;14.17;4.00;;;11.50;99.90;;;;;;4947502;28;20169;-90
2023/11/15 04:31:58;;;;;;;17.43;4.13;;;11.40;99.90;;;;;;4962555;28;20200;-90
2023/11/15 04:34:25;;;;;;;17.87;3.80;;;11.30;99.90;;;;;;4962221;29;20219;-89
2023/11/15 04:36:51;;;;;;;14.40;4.03;;;11.30;99.90;;;;;;4963070;29;20755;-90
2023/11/15 04:39:19;;;;;;;14.13;3.90;;;11.40;99.90;;;;;;4942707;29;20188;-91
2023/11/15 04:41:45;;;;;;;14.97;4.50;;;11.40;99.90;;;;;;4924732;29;20185;-90
2023/11/15 04:44:12;;;;;;;16.23;4.07;;;11.40;99.90;;;;;;4939783;29;20192;-90
2023/11/15 04:46:38;;;;;;;13.40;3.67;;;11.20;99.90;;;;;;4941968;29;20236;-92
2023/11/15 04:49:07;;;;;;;17.37;4.27;;;11.30;99.90;;;;;;4939799;29;20248;-91
2023/11/15 04:51:33;;;;;;;17.87;4.00;;;11.20;99.90;;;;;;4942237;29;20188;-90
2023/11/15 04:53:59;;;;;;;14.10;3.40;;;11.10;99.90;;;;;;4941066;29;20242;-90
2023/11/15 04:56:24;;;;;;;15.73;3.33;;;11.30;99.90;;;;;;4940655;29;20276;-90
2023/11/15 04:58:52;;;;;;;15.07;3.73;;;11.10;99.90;;;;;;4940055;29;20219;-90
2023/11/15 05:01:18;;;;;;;12.17;3.77;;;11.10;99.90;;;;;;4940590;29;20180;-90
2023/11/15 05:03:44;;;;;;;15.03;3.87;;;11.20;99.90;;;;;;4940123;29;20192;-90
2023/11/15 05:06:11;;;;;;;15.17;4.03;;;11.10;99.90;;;;;;4943421;29;20245;-89
2023/11/15 05:08:36;;;;;;;14.00;3.93;;;11.10;99.90;;;;;;4945820;29;20185;-88
2023/11/15 05:11:02;;;;;;;17.70;3.63;;;11.30;99.90;;;;;;4944329;29;20637;-90
2023/11/15 05:13:31;;;;;;;19.33;4.90;;;11.10;99.90;;;;;;4941184;29;20216;-89
2023/11/15 05:15:58;;;;;;;19.00;4.30;;;11.10;99.90;;;;;;4962236;29;20181;-88
2023/11/15 05:18:24;;;;;;;18.00;4.40;;;11.40;99.90;;;;;;4946362;29;20707;-89
2023/11/15 05:20:51;;;;;;;15.17;3.70;;;11.20;99.90;;;;;;4938767;29;20189;-88
2023/11/15 05:23:17;;;;;;;18.20;3.53;;;11.20;99.90;;;;;;4956521;29;20196;-91
2023/11/15 05:25:43;;;;;;;18.70;4.00;;;11.30;99.90;;;;;;4939691;29;20358;-92
2023/11/15 05:28:10;;;;;;;14.93;4.13;;;11.30;99.90;;;;;;4940146;29;20284;-90
2023/11/15 05:30:35;;;;;;;14.43;3.87;;;11.10;99.90;;;;;;4939756;28;20642;-90
2023/11/15 05:33:01;;;;;;;16.70;4.37;;;11.00;99.90;;;;;;4942124;29;20212;-89
2023/11/15 05:35:27;;;;;;;17.80;4.17;;;10.90;99.90;;;;;;4943301;29;20192;-90
2023/11/15 05:37:53;;;;;;;22.30;4.37;;;11.00;99.90;;;;;;4943821;29;20187;-90
2023/11/15 05:40:19;;;;;;;14.50;3.37;;;10.80;99.90;;;;;;4970908;28;20207;-90
2023/11/15 05:42:45;;;;;;;11.27;3.57;;;10.70;99.90;;;;;;4962510;29;20184;-89
2023/11/15 05:45:16;;;;;;;15.80;3.77;;;10.70;99.90;;;;;;4949848;29;20188;-91
2023/11/15 05:47:42;;;;;;;17.33;4.17;;;10.70;99.90;;;;;;4951556;29;20188;-89
2023/11/15 05:50:11;;;;;;;14.30;3.57;;;10.80;99.90;;;;;;4943065;29;20184;-91
2023/11/15 05:52:38;;;;;;;17.67;4.67;;;10.80;99.90;;;;;;4943081;29;20224;-90
2023/11/15 05:55:08;;;;;;;18.20;4.23;;;11.00;99.90;;;;;;4943037;29;20211;-91
2023/11/15 05:57:35;;;;;;;13.70;3.77;;;10.80;99.90;;;;;;4927271;29;20189;-90
2023/11/15 06:00:05;;;;;;;19.53;4.13;;;10.80;99.90;;;;;;4944276;29;20703;-90
2023/11/15 06:02:32;;;;;;;21.53;4.63;;;10.80;99.90;;;;;;4945884;29;20192;-89
2023/11/15 06:04:59;;;;;;;19.67;4.50;;;10.90;99.90;;;;;;4945868;29;20188;-89
2023/11/15 06:07:26;;;;;;;15.67;3.83;;;10.90;99.90;;;;;;4944644;29;20184;-91
2023/11/15 06:09:52;;;;;;;17.20;3.63;;;11.00;99.90;;;;;;4944540;29;20201;-90
2023/11/15 06:12:19;;;;;;;22.30;4.67;;;11.00;99.90;;;;;;4946928;29;20185;-90
2023/11/15 06:14:46;;;;;;;16.97;4.23;;;10.90;99.90;;;;;;4944574;29;20228;-90
2023/11/15 06:17:12;;;;;;;17.03;4.73;;;10.90;99.90;;;;;;4944618;29;20188;-89
2023/11/15 06:19:39;;;;;;;21.30;5.03;;;11.00;99.90;;;;;;4943814;29;20216;-91
2023/11/15 06:22:07;;;;;;;15.00;4.07;;;11.00;99.90;;;;;;4943874;29;20193;-91
2023/11/15 06:24:33;;;;;;;16.87;4.37;;;11.10;99.90;;;;;;4944653;29;20215;-90
2023/11/15 06:26:58;;;;;;;23.77;4.87;;;11.10;99.90;;;;;;4942762;29;20247;-91
2023/11/15 06:29:24;;;;;;;20.43;3.50;;;11.20;99.90;;;;;;4942294;29;20644;-91
2023/11/15 06:31:50;;;;;;;17.67;4.50;;;11.10;99.90;;;;;;4943485;29;20653;-89
2023/11/15 06:34:16;;;;;;;17.93;4.10;;;10.90;99.90;;;;;;4945981;29;20280;-90
2023/11/15 06:36:46;;;;;;;16.97;3.80;;;11.00;99.90;;;;;;4948586;28;20196;-89
2023/11/15 06:39:12;;;;;;;17.53;4.23;;;10.90;99.90;;;;;;4964602;28;20173;-89
2023/11/15 06:41:40;;;;;;;14.30;4.23;;;10.90;99.90;;;;;;4963807;28;20176;-91
2023/11/15 06:44:09;;;;;;;19.07;4.00;;;10.80;99.90;;;;;;4958679;29;20188;-90
2023/11/15 06:46:38;;;;;;;13.97;3.90;;;10.70;99.90;;;;;;4952780;29;20188;-91
2023/11/15 06:49:06;;;;;;;13.03;3.70;;;10.80;99.90;;;;;;4950460;29;20235;-89
2023/11/15 06:51:36;;;;;;;14.90;3.83;;;10.90;99.90;;;;;;4948452;29;20196;-90
2023/11/15 06:54:02;;;;;;;18.20;4.27;;;10.90;99.90;;;;;;4946841;29;20228;-89
2023/11/15 06:56:31;;;;;;;16.90;4.40;;;10.80;99.90;;;;;;4947466;29;20195;-88
2023/11/15 06:58:59;;;;;;;17.17;4.93;;;10.80;99.90;;;;;;4947388;29;20195;-87
2023/11/15 07:01:27;;;;;;;14.37;3.33;;;10.80;99.90;;;;;;4961318;29;20236;-90
2023/11/15 07:03:55;;;;;;;23.37;4.80;;;10.80;99.90;;;;;;4960928;29;20191;-88
2023/11/15 07:06:22;;;;;;;14.93;3.90;;;10.70;99.90;;;;;;4960557;29;20259;-86
2023/11/15 07:08:50;;;;;;;15.20;4.10;;;10.70;99.90;;;;;;4958499;29;20176;-89
2023/11/15 07:11:17;;;;;;;20.20;4.33;;;10.70;99.90;;;;;;4951544;29;20606;-90
2023/11/15 07:13:43;;;;;;;20.57;3.87;;;10.90;99.90;;;;;;4943705;29;20690;-88
2023/11/15 07:16:12;;;;;;;18.27;3.80;;;10.70;99.90;;;;;;4942683;29;20188;-88
2023/11/15 07:18:39;;;;;;;16.27;4.10;;;10.60;99.90;;;;;;4942376;29;20196;-92
2023/11/15 07:21:07;;;;;;;15.70;3.40;;;10.60;99.90;;;;;;4943686;29;20224;-89
2023/11/15 07:23:33;;;;;;;15.43;3.90;;;10.60;99.90;;;;;;4958633;29;20216;-90
2023/11/15 07:25:59;;;;;;;16.30;4.07;;;10.60;99.90;;;;;;4943090;29;20199;-90
2023/11/15 07:28:26;;;;;;;20.27;4.37;;;10.70;99.90;;;;;;4959084;28;20567;-90
2023/11/15 07:30:55;;;;;;;16.27;4.17;;;10.60;99.90;;;;;;4960838;28;20279;-89
2023/11/15 07:33:21;;;;;;;23.47;4.40;;;10.80;99.90;;;;;;4974374;28;20219;-91
2023/11/15 07:35:51;;;;;;;17.93;4.50;;;10.80;99.90;;;;;;4981062;28;20179;-89
2023/11/15 07:38:18;;;;;;;14.53;4.37;;;10.70;99.90;;;;;;4974692;28;20204;-91
2023/11/15 07:41:09;;;;;;;18.63;4.13;;;10.70;99.90;;;;;;4971760;28;20176;-90
2023/11/15 07:43:38;;;;;;;12.07;3.87;;;10.80;99.90;;;;;;4962605;28;20258;-91
2023/11/15 07:46:09;;;;;;;21.67;4.00;;;10.80;99.90;;;;;;4966463;28;20199;-93
2023/11/15 07:48:36;;;;;;;16.00;4.70;;;10.80;99.90;;;;;;4970706;28;20320;-92
2023/11/15 07:51:06;;;;;;;12.43;3.70;;;10.80;99.90;;;;;;4952719;28;20172;-93
2023/11/15 07:53:33;;;;;;;16.43;4.13;;;10.90;99.90;;;;;;4971422;28;20239;-93
2023/11/15 07:56:02;;;;;;;22.00;4.80;;;11.00;99.90;;;;;;4946735;29;20181;-93
2023/11/15 07:58:29;;;;;;;15.77;3.70;;;10.90;99.90;;;;;;4964785;28;20259;-93
2023/11/15 08:00:57;;;;;;;16.70;4.47;;;10.90;99.90;;;;;;4972665;28;20251;-92
2023/11/15 08:03:28;;;;;;;18.60;4.77;;;10.90;99.90;;;;;;4952714;28;20219;-92
2023/11/15 08:05:58;;;;;;;17.27;5.43;;;10.90;99.90;;;;;;4960946;28;20495;-94
2023/11/15 08:08:24;;;;;;;17.13;4.23;;;10.90;99.90;;;;;;4964307;28;20194;-93
2023/11/15 08:10:50;;;;;;;15.93;3.83;;;11.10;99.90;;;;;;4961368;28;20226;-94
2023/11/15 08:13:19;;;;;;;18.93;4.67;;;11.10;99.90;;;;;;4931819;28;20581;-93
2023/11/15 08:15:48;;;;;;;18.77;3.83;;;11.10;99.90;;;;;;4955689;28;20199;-92
2023/11/15 08:18:15;;;;;;;18.73;3.57;;;11.10;99.90;;;;;;4944747;28;20191;-93
2023/11/15 08:20:45;;;;;;;14.77;4.73;;;11.10;99.90;;;;;;4949819;28;20187;-91
2023/11/15 08:23:11;;;;;;;18.87;5.03;;;11.00;99.90;;;;;;4965823;28;20216;-90
2023/11/15 08:25:45;;;;;;;20.37;4.80;;;11.20;99.90;;;;;;4962009;28;20203;-93
2023/11/15 08:28:11;;;;;;;14.57;3.87;;;11.20;99.90;;;;;;4974714;28;20203;-92
2023/11/15 08:30:38;;;;;;;20.30;4.50;;;11.30;99.90;;;;;;4977585;28;20180;-92
2023/11/15 08:33:05;;;;;;;15.13;4.30;;;11.30;99.90;;;;;;4957220;29;20298;-91
2023/11/15 08:35:34;;;;;;;19.10;4.70;;;11.50;99.90;;;;;;4948209;29;20224;-93
2023/11/15 08:38:02;;;;;;;14.37;4.00;;;11.30;99.90;;;;;;4994453;28;20180;-91
2023/11/15 08:40:27;;;;;;;17.37;4.10;;;11.30;99.90;;;;;;4974471;28;20187;-90
2023/11/15 08:43:02;;;;;;;15.13;4.27;;;11.30;99.90;;;;;;4968388;28;20211;-93
2023/11/15 08:45:28;;;;;;;20.03;4.77;;;11.40;99.90;;;;;;4973628;28;20179;-91
2023/11/15 08:47:57;;;;;;;13.20;3.43;;;11.50;99.90;;;;;;4979799;28;20188;-88
2023/11/15 08:50:36;;;;;;;18.13;4.63;;;11.50;99.90;;;;;;4963844;28;20220;-92
2023/11/15 08:53:02;;;;;;;17.60;4.60;;;11.50;99.90;;;;;;4959281;29;20199;-93
2023/11/15 08:55:28;;;;;;;15.30;4.27;;;11.40;99.90;;;;;;4966418;28;20206;-95
2023/11/15 08:57:56;;;;;;;12.07;4.13;;;11.60;99.90;;;;;;4962592;28;20200;-92
2023/11/15 09:00:24;;;;;;;16.77;4.30;;;11.70;99.90;;;;;;4962544;28;20188;-94
2023/11/15 09:02:50;;;;;;;13.70;3.90;;;11.70;99.90;;;;;;4940704;28;20495;-93
2023/11/15 09:05:19;;;;;;;17.57;4.53;;;11.70;99.90;;;;;;4973366;28;20275;-88
2023/11/15 09:07:46;;;;;;;22.30;4.80;;;11.80;99.90;;;;;;4956919;28;20275;-89
2023/11/15 09:10:13;;;;;;;18.23;4.60;;;11.80;99.90;;;;;;4960541;28;20271;-90
2023/11/15 09:12:40;;;;;;;17.03;4.17;;;11.70;99.90;;;;;;4964650;28;20215;-89
2023/11/15 09:15:11;;;;;;;16.03;3.90;;;11.70;99.90;;;;;;4983720;28;20192;-88
2023/11/15 09:18:00;;;;;;;16.83;3.77;;;11.70;99.90;;;;;;4967693;28;20179;-91
2023/11/15 09:20:31;;;;;;;13.13;3.60;;;11.80;99.90;;;;;;4966815;28;20180;-95
2023/11/15 09:22:59;;;;;;;11.60;3.50;;;11.80;99.90;;;;;;4970320;28;20211;-89
2023/11/15 09:25:31;;;;;;;14.00;3.43;;;11.90;99.90;;;;;;4979544;28;20186;-86
2023/11/15 09:27:59;;;;;;;19.80;4.30;;;12.00;99.90;;;;;;4979179;28;20176;-83
2023/11/15 09:30:26;;;;;;;16.57;4.27;;;12.10;99.90;;;;;;4958418;29;20745;-83
2023/11/15 09:32:53;;;;;;;12.63;3.47;;;12.10;99.90;;;;;;4969566;28;20266;-86
2023/11/15 09:35:21;;;;;;;18.83;4.03;;;12.20;99.90;;;;;;4961825;28;20196;-83
2023/11/15 09:37:48;;;;;;;19.73;4.13;;;12.10;99.90;;;;;;4972371;28;20210;-83
2023/11/15 09:40:14;;;;;;;15.53;3.53;;;12.20;99.90;;;;;;4963193;28;20214;-82
2023/11/15 09:42:42;;;;;;;11.37;3.43;;;12.10;99.90;;;;;;4967423;29;20168;-84
2023/11/15 09:45:13;;;;;;;13.33;3.20;;;12.20;99.90;;;;;;4965320;29;20202;-79
2023/11/15 09:47:50;;;;;;;13.77;3.43;;;12.20;99.90;;;;;;4975672;28;20213;-82
2023/11/15 09:50:22;;;;;;;13.30;3.53;;;12.50;99.90;;;;;;4976071;28;20200;-83
2023/11/15 09:52:53;;;;;;;11.23;3.10;;;12.30;99.90;;;;;;4942959;29;20194;-84
2023/11/15 09:55:21;;;;;;;18.60;3.73;;;12.30;99.90;;;;;;4944392;28;20188;-82
2023/11/15 09:57:48;;;;;;;15.07;3.53;;;12.20;99.90;;;;;;4964554;28;20201;-84
2023/11/15 10:00:19;;;;;;;8.13;2.80;;;12.30;99.90;;;;;;4962114;28;20221;-83
2023/11/15 10:02:45;;;;;;;14.17;3.77;;;12.20;99.90;;;;;;4950250;28;20535;-86
2023/11/15 10:05:18;;;;;;;9.97;3.33;;;12.30;99.90;;;;;;4975098;28;20187;-81
2023/11/15 10:07:52;;;;;;;14.07;4.07;;;12.30;99.90;;;;;;4996801;28;20283;-88
2023/11/15 10:10:20;;;;;;;10.30;3.27;;;12.30;99.90;;;;;;4963866;28;20220;-88
2023/11/15 10:12:53;;;;;;;14.80;3.63;;;12.30;99.90;;;;;;4965188;28;20206;-89
2023/11/15 10:15:36;;;;;;;11.27;3.47;;;12.30;99.90;;;;;;4964675;28;20196;-89
2023/11/15 10:18:08;;;;;;;13.33;3.30;;;12.50;99.90;;;;;;4963702;28;20182;-85
2023/11/15 10:20:35;;;;;;;10.20;2.60;;;12.40;99.90;;;;;;4947773;28;20195;-91
2023/11/15 10:23:01;;;;;;;8.60;2.77;;;12.40;99.90;;;;;;4955999;28;20221;-88
2023/11/15 10:25:27;;;;;;;12.40;2.90;;;12.40;99.90;;;;;;4975494;28;20176;-88
2023/11/15 10:28:09;;;;;;;11.43;2.97;;;12.40;99.90;;;;;;4957804;28;20186;-88
2023/11/15 10:30:35;;;;;;;13.30;2.90;;;12.50;99.90;;;;;;4968444;28;20218;-88
2023/11/15 10:33:10;;;;;;;14.50;2.80;;;12.80;99.90;;;;;;4971676;28;20372;-88
2023/11/15 10:35:39;;;;;;;10.33;2.57;;;12.80;99.90;;;;;;4967662;28;20198;-87
2023/11/15 10:38:14;;;;;;;13.97;3.13;;;12.70;99.90;;;;;;4965740;28;20269;-89
2023/11/15 10:40:40;;;;;;;9.13;2.53;;;12.70;99.90;;;;;;4963397;28;20276;-87
2023/11/15 10:43:07;;;;;;;13.47;3.23;;;12.70;99.90;;;;;;4961798;28;20234;-87
2023/11/15 10:45:35;;;;;;;8.73;2.83;;;12.90;99.90;;;;;;4964086;28;20218;-87
2023/11/15 10:48:05;;;;;;;10.17;2.63;;;13.00;99.90;;;;;;4962801;28;20192;-88
2023/11/15 10:50:34;;;;;;;10.60;2.33;;;13.00;99.90;;;;;;4981543;28;20243;-88
2023/11/15 10:53:02;;;;;;;9.80;2.50;;;13.00;99.90;;;;;;4969082;28;20218;-89
2023/11/15 10:55:31;;;;;;;10.57;2.77;;;13.00;99.90;;;;;;4964308;28;20223;-91
2023/11/15 10:58:00;;;;;;;9.77;2.67;;;12.90;99.90;;;;;;4947065;28;20186;-88
2023/11/15 11:00:29;;;;;;;9.47;3.03;;;12.70;99.90;;;;;;4962892;28;20200;-86
2023/11/15 11:02:57;;;;;;;8.57;2.57;;;12.70;99.90;;;;;;4981174;28;20257;-85
2023/11/15 11:05:34;;;;;;;9.07;2.93;;;12.70;99.90;;;;;;4967525;28;20676;-85
2023/11/15 11:08:27;;;;;;;10.60;2.63;;;12.70;99.90;;;;;;4964346;28;20573;-87
2023/11/15 11:11:20;;;;;;;9.43;2.37;;;12.90;99.90;;;;;;4961251;28;20235;-88
2023/11/15 11:14:16;;;;;;;8.57;2.10;;;13.10;99.90;;;;;;4964024;28;20743;-89
2023/11/15 11:16:44;;;;;;;11.07;2.50;;;13.30;99.90;;;;;;4943879;29;20199;-87
2023/11/15 11:19:16;;;;;;;10.97;2.83;;;13.40;99.90;;;;;;4957193;29;20186;-86
2023/11/15 11:22:01;;;;;;;10.30;2.87;;;13.50;99.90;;;;;;4922910;29;20181;-87
2023/11/15 11:24:31;;;;;;;10.23;2.60;;;13.50;99.90;;;;;;4959809;28;20278;-87
2023/11/15 11:27:19;;;;;;;12.47;3.33;;;13.60;99.90;;;;;;4962109;28;20253;-84
2023/11/15 11:29:51;;;;;;;7.53;2.30;;;13.60;99.90;;;;;;4946378;28;20190;-87
2023/11/15 11:32:31;;;;;;;10.80;2.60;;;13.60;99.90;;;;;;4962603;28;20184;-88
2023/11/15 11:35:12;;;;;;;10.63;2.40;;;13.50;99.90;;;;;;4964876;28;20251;-86
2023/11/15 11:37:47;;;;;;;10.20;2.43;;;13.60;99.90;;;;;;4960002;28;20624;-87
2023/11/15 11:40:38;;;;;;;7.67;2.23;;;13.60;99.90;;;;;;4960461;28;20190;-86
2023/11/15 11:43:29;;;;;;;6.17;1.90;;;13.60;99.90;;;;;;4973318;28;20180;-85
2023/11/15 11:45:56;;;;;;;9.70;2.57;;;13.50;99.90;;;;;;4964331;28;20194;-87
2023/11/15 11:48:28;;;;;;;5.53;1.83;;;13.50;99.90;;;;;;4972955;28;20193;-87
2023/11/15 11:51:05;;;;;;;7.87;2.10;;;13.60;99.90;;;;;;4982061;28;20188;-86
2023/11/15 11:53:46;;;;;;;8.97;2.40;;;13.60;99.90;;;;;;4979777;28;20216;-87
2023/11/15 11:56:15;;;;;;;7.63;1.90;;;13.60;99.90;;;;;;4970514;28;20260;-86
2023/11/15 11:58:42;;;;;;;5.80;2.00;;;13.50;99.90;;;;;;4979899;28;20186;-85
2023/11/15 12:01:12;;;;;;;7.93;1.97;;;13.50;99.90;;;;;;4970966;28;20277;-86
2023/11/15 12:03:44;;;;;;;7.90;2.30;;;13.40;99.90;;;;;;4967660;28;20182;-87
2023/11/15 12:06:12;;;;;;;9.00;2.10;;;13.40;99.90;;;;;;4961782;28;20225;-87
2023/11/15 12:08:53;;;;;;;9.07;2.37;;;13.60;99.90;;;;;;4941485;29;20240;-86
2023/11/15 12:11:22;;;;;;;10.67;2.00;;;13.40;99.90;;;;;;4941458;28;20183;-86
2023/11/15 12:13:52;;;;;;;7.87;2.90;;;13.50;99.90;;;;;;4939826;29;20223;-86
2023/11/15 12:16:25;;;;;;;7.43;2.10;;;13.50;99.90;;;;;;4939677;29;20230;-86
2023/11/15 12:19:01;;;;;;;7.37;2.97;;;13.50;99.90;;;;;;4957829;29;20183;-86
2023/11/15 12:21:28;;;;;;;8.20;2.53;;;13.50;99.90;;;;;;4964705;28;20195;-86
2023/11/15 12:23:54;;;;;;;9.73;3.20;;;13.50;99.90;;;;;;4934577;29;20201;-86
2023/11/15 12:26:23;;;;;;;8.37;2.90;;;13.40;99.90;;;;;;4950656;28;20195;-87
2023/11/15 12:28:49;;;;;;;7.20;2.27;;;13.30;99.90;;;;;;4947072;29;20188;-93
2023/11/15 12:31:16;;;;;;;6.20;2.20;;;13.30;99.90;;;;;;4951324;28;20610;-88
2023/11/15 12:33:45;;;;;;;11.50;3.83;;;13.30;99.90;;;;;;4961864;29;20216;-90
2023/11/15 12:36:13;;;;;;;10.00;4.17;;;13.30;99.90;;;;;;4935415;28;20191;-93
2023/11/15 12:38:55;;;;;;;5.97;2.50;;;13.70;99.90;;;;;;4938367;29;20199;-86
2023/11/15 12:41:21;;;;;;;10.40;4.70;;;13.70;99.90;;;;;;4937493;29;20190;-86
2023/11/15 12:44:00;;;;;;;11.50;4.60;;;13.70;99.90;;;;;;4949131;29;20271;-89
2023/11/15 12:46:28;;;;;;;9.63;5.07;;;13.80;99.90;;;;;;4947585;28;20186;-87